Time;durP1;ratioP1;P1;durP2;ratioP2;P2;SDS_P1;SDS_P2;PMS_P1;PMS_P2;Temp;Humidity;BMP_temperature;BMP_pressure;BME280_temperature;BME280_humidity;BME280_pressure;Samples;Min_cycle;Max_cycle;Signal;HPM_P1;HPM_P2
2023/03/12 00:00:44;;;;;;;9.38;4.10;;;7.40;68.50;;;;;;5018264;28;20041;-76
2023/03/12 00:03:09;;;;;;;6.82;4.00;;;7.40;68.70;;;;;;5017991;28;20060;-78
2023/03/12 00:05:42;;;;;;;8.98;3.80;;;7.30;68.90;;;;;;5002036;28;20045;-78
2023/03/12 00:08:09;;;;;;;9.38;3.92;;;7.30;69.10;;;;;;5018587;28;20033;-78
2023/03/12 00:10:37;;;;;;;7.15;3.58;;;7.30;69.10;;;;;;5018028;28;20048;-77
2023/03/12 00:13:02;;;;;;;8.98;3.85;;;7.30;68.10;;;;;;5017804;28;20164;-76
2023/03/12 00:15:28;;;;;;;8.43;4.30;;;7.30;68.50;;;;;;5001834;28;20120;-77
2023/03/12 00:17:53;;;;;;;8.60;3.70;;;7.20;68.70;;;;;;5018526;28;20100;-77
2023/03/12 00:20:20;;;;;;;8.50;4.05;;;7.20;69.00;;;;;;5035686;28;20037;-77
2023/03/12 00:22:46;;;;;;;8.45;3.28;;;7.10;69.20;;;;;;5018722;28;20044;-77
2023/03/12 00:25:14;;;;;;;5.72;3.08;;;7.10;68.80;;;;;;5017798;28;20029;-78
2023/03/12 00:27:41;;;;;;;5.47;2.75;;;7.10;68.80;;;;;;5035195;28;20025;-78
2023/03/12 00:30:09;;;;;;;8.25;2.97;;;7.10;68.80;;;;;;5035135;28;20025;-80
2023/03/12 00:32:36;;;;;;;9.23;2.80;;;7.10;68.70;;;;;;5035815;28;20022;-77
2023/03/12 00:35:02;;;;;;;10.38;3.38;;;7.10;68.80;;;;;;5035549;28;20076;-76
2023/03/12 00:37:28;;;;;;;10.93;3.20;;;7.10;68.70;;;;;;5017931;28;20504;-76
2023/03/12 00:39:54;;;;;;;7.88;2.70;;;7.00;69.10;;;;;;5035143;28;20029;-76
2023/03/12 00:42:19;;;;;;;7.82;3.08;;;6.90;69.30;;;;;;5035125;28;20030;-77
2023/03/12 00:44:45;;;;;;;6.50;3.00;;;6.90;69.40;;;;;;5017888;28;20034;-77
2023/03/12 00:47:12;;;;;;;9.20;2.70;;;6.90;69.50;;;;;;5035309;28;20491;-77
2023/03/12 00:49:38;;;;;;;7.57;3.15;;;7.00;69.40;;;;;;5035827;28;20029;-77
2023/03/12 00:52:04;;;;;;;7.28;2.80;;;7.00;69.20;;;;;;5017920;28;20041;-77
2023/03/12 00:54:30;;;;;;;8.23;3.30;;;7.00;69.20;;;;;;5001438;28;20052;-76
2023/03/12 00:56:56;;;;;;;8.73;3.33;;;7.00;69.20;;;;;;5001003;28;20033;-76
2023/03/12 00:59:21;;;;;;;5.97;2.95;;;7.10;69.20;;;;;;5017050;28;20033;-75
2023/03/12 01:01:47;;;;;;;6.35;3.10;;;7.00;69.30;;;;;;4985041;28;20033;-75
2023/03/12 01:04:13;;;;;;;9.02;3.30;;;6.90;69.30;;;;;;5017360;28;20470;-76
2023/03/12 01:06:39;;;;;;;12.20;3.40;;;6.80;69.50;;;;;;5034860;28;20037;-76
2023/03/12 01:09:06;;;;;;;8.02;2.92;;;6.90;69.70;;;;;;5017511;28;20037;-75
2023/03/12 01:11:32;;;;;;;6.47;3.08;;;6.90;69.80;;;;;;5034498;28;20378;-76
2023/03/12 01:13:59;;;;;;;6.65;2.80;;;6.90;70.20;;;;;;5034777;28;20033;-76
2023/03/12 01:16:28;;;;;;;8.02;2.90;;;6.90;70.30;;;;;;5034406;28;20474;-76
2023/03/12 01:18:55;;;;;;;6.03;2.60;;;6.90;70.30;;;;;;5034664;28;20462;-76
2023/03/12 01:21:21;;;;;;;5.72;2.65;;;6.90;70.50;;;;;;4984519;28;20048;-76
2023/03/12 01:23:46;;;;;;;7.85;2.70;;;6.90;70.70;;;;;;5034293;28;20022;-77
2023/03/12 01:26:12;;;;;;;7.25;3.00;;;6.90;70.90;;;;;;5017060;28;20485;-76
2023/03/12 01:28:37;;;;;;;6.40;2.33;;;6.90;70.90;;;;;;5017161;28;20034;-77
2023/03/12 01:31:08;;;;;;;5.05;2.38;;;6.90;70.90;;;;;;5001187;28;20036;-77
2023/03/12 01:33:33;;;;;;;6.20;2.47;;;6.90;70.80;;;;;;5016878;28;20034;-76
2023/03/12 01:35:59;;;;;;;7.32;3.05;;;6.90;70.80;;;;;;5016507;28;20034;-76
2023/03/12 01:38:25;;;;;;;5.97;2.35;;;6.80;70.90;;;;;;5034286;28;20354;-76
2023/03/12 01:40:50;;;;;;;7.13;2.30;;;6.80;71.00;;;;;;5016093;28;20041;-76
2023/03/12 01:43:23;;;;;;;6.55;2.35;;;6.90;71.00;;;;;;5034470;28;20041;-77
2023/03/12 01:46:01;;;;;;;9.40;2.30;;;6.80;70.90;;;;;;5034198;28;20065;-77
2023/03/12 01:48:33;;;;;;;5.30;2.25;;;6.90;71.00;;;;;;5016411;28;20473;-77
2023/03/12 01:50:59;;;;;;;6.73;2.03;;;6.80;71.00;;;;;;5034183;28;20044;-77
2023/03/12 01:53:25;;;;;;;6.20;2.30;;;6.90;71.00;;;;;;5034124;28;20065;-79
2023/03/12 01:55:51;;;;;;;7.82;2.22;;;6.90;70.90;;;;;;5016316;28;20034;-76
2023/03/12 01:58:17;;;;;;;5.97;2.20;;;6.80;70.90;;;;;;4999854;28;20065;-77
2023/03/12 02:00:44;;;;;;;6.65;2.22;;;6.90;70.90;;;;;;5015879;28;20116;-77
2023/03/12 02:03:09;;;;;;;6.95;2.08;;;6.80;71.00;;;;;;5016954;28;20076;-78
2023/03/12 02:05:42;;;;;;;7.10;2.30;;;6.80;70.70;;;;;;5033616;28;20482;-77
2023/03/12 02:08:09;;;;;;;4.95;1.88;;;6.80;70.80;;;;;;5034399;28;20029;-78
2023/03/12 02:10:35;;;;;;;6.32;2.15;;;6.80;70.90;;;;;;5016732;28;20041;-76
2023/03/12 02:13:01;;;;;;;8.20;2.15;;;6.70;70.70;;;;;;5016251;28;20488;-76
2023/03/12 02:15:27;;;;;;;4.90;2.20;;;6.70;70.80;;;;;;5033548;28;20581;-76
2023/03/12 02:17:53;;;;;;;5.72;2.28;;;6.70;70.90;;;;;;5016013;28;20120;-76
2023/03/12 02:20:34;;;;;;;6.22;1.70;;;6.80;70.90;;;;;;5033671;28;20033;-77
2023/03/12 02:23:11;;;;;;;6.95;1.55;;;6.80;70.90;;;;;;5033991;28;20458;-76
2023/03/12 02:25:49;;;;;;;5.70;2.00;;;6.90;70.90;;;;;;5033788;28;20496;-76
2023/03/12 02:28:18;;;;;;;8.77;1.88;;;6.80;70.80;;;;;;5033594;28;20029;-77
2023/03/12 02:30:47;;;;;;;9.98;2.15;;;6.70;70.90;;;;;;5033515;28;20030;-76
2023/03/12 02:33:14;;;;;;;7.03;1.60;;;6.70;70.80;;;;;;5033606;28;20101;-78
2023/03/12 02:35:40;;;;;;;8.98;1.95;;;6.60;71.10;;;;;;5033546;28;20029;-78
2023/03/12 02:38:37;;;;;;;6.97;2.00;;;6.60;71.20;;;;;;5033534;28;20084;-78
2023/03/12 02:41:28;;;;;;;9.85;2.97;;;6.60;71.30;;;;;;5033510;28;20037;-78
2023/03/12 02:44:05;;;;;;;5.15;1.70;;;6.60;71.30;;;;;;5015917;28;20029;-78
2023/03/12 02:46:46;;;;;;;6.53;2.15;;;6.60;71.70;;;;;;5033553;28;20036;-77
2023/03/12 02:49:12;;;;;;;5.05;1.63;;;6.50;71.40;;;;;;5033184;28;20061;-77
2023/03/12 02:51:39;;;;;;;7.15;1.95;;;6.50;71.30;;;;;;5016559;28;20029;-78
2023/03/12 02:54:06;;;;;;;7.20;2.50;;;6.50;71.30;;;;;;5017397;28;20022;-77
2023/03/12 02:56:31;;;;;;;8.30;2.47;;;6.50;71.40;;;;;;5020400;28;20034;-78
2023/03/12 02:58:58;;;;;;;8.38;2.47;;;6.50;71.80;;;;;;5037253;28;20465;-77
2023/03/12 03:01:23;;;;;;;6.85;2.17;;;6.40;72.10;;;;;;5019284;28;20033;-77
2023/03/12 03:03:49;;;;;;;7.43;2.47;;;6.50;72.10;;;;;;5019208;28;20045;-77
2023/03/12 03:06:16;;;;;;;9.38;2.35;;;6.50;72.10;;;;;;5019936;28;20367;-77
2023/03/12 03:08:41;;;;;;;6.68;2.05;;;6.50;72.20;;;;;;5003473;28;20033;-77
2023/03/12 03:11:08;;;;;;;6.63;2.20;;;6.50;72.50;;;;;;5037075;28;20033;-78
2023/03/12 03:13:34;;;;;;;5.25;1.33;;;6.50;72.50;;;;;;5003099;28;20033;-77
2023/03/12 03:16:00;;;;;;;6.65;1.70;;;6.60;72.40;;;;;;5036721;28;20033;-77
2023/03/12 03:18:28;;;;;;;5.70;1.45;;;6.60;72.30;;;;;;5003570;28;20040;-77
2023/03/12 03:20:55;;;;;;;4.25;1.75;;;6.60;72.30;;;;;;5019116;28;20036;-79
2023/03/12 03:23:21;;;;;;;6.28;1.67;;;6.70;72.20;;;;;;5002844;28;20037;-77
2023/03/12 03:25:46;;;;;;;6.75;1.73;;;6.70;72.20;;;;;;5002695;28;20033;-77
2023/03/12 03:28:12;;;;;;;6.82;1.88;;;6.70;72.20;;;;;;5002960;28;20034;-78
2023/03/12 03:30:37;;;;;;;3.88;1.50;;;6.60;72.00;;;;;;5019342;28;20038;-80
2023/03/12 03:33:03;;;;;;;4.68;1.30;;;6.50;72.40;;;;;;5002363;28;20044;-77
2023/03/12 03:35:29;;;;;;;4.00;1.42;;;6.40;72.70;;;;;;5036429;28;20035;-77
2023/03/12 03:37:55;;;;;;;9.73;1.33;;;6.40;72.90;;;;;;5003394;28;20029;-77
2023/03/12 03:40:20;;;;;;;5.22;1.58;;;6.50;73.00;;;;;;5018683;28;20482;-77
2023/03/12 03:42:47;;;;;;;4.18;1.30;;;6.40;73.00;;;;;;5018988;28;20055;-77
2023/03/12 03:45:12;;;;;;;6.35;1.40;;;6.50;73.00;;;;;;5036437;28;20087;-77
2023/03/12 03:47:38;;;;;;;7.45;1.52;;;6.50;73.00;;;;;;5018727;28;20215;-76
2023/03/12 03:50:04;;;;;;;7.05;1.83;;;6.50;73.00;;;;;;5002223;28;20439;-76
2023/03/12 03:52:31;;;;;;;8.73;1.55;;;6.40;73.20;;;;;;5036326;28;20028;-77
2023/03/12 03:54:58;;;;;;;7.53;1.48;;;6.30;73.50;;;;;;5019403;28;20412;-77
2023/03/12 03:57:24;;;;;;;6.97;1.42;;;6.30;73.70;;;;;;5017787;28;20087;-77
2023/03/12 03:59:50;;;;;;;6.47;1.73;;;6.30;73.70;;;;;;5017013;28;20045;-76
2023/03/12 04:02:16;;;;;;;6.15;1.90;;;6.20;73.70;;;;;;5017029;28;20055;-76
2023/03/12 04:04:42;;;;;;;6.82;1.88;;;6.20;73.80;;;;;;5016916;28;20050;-76
2023/03/12 04:07:08;;;;;;;6.78;1.40;;;6.20;74.10;;;;;;4984664;28;20461;-76
2023/03/12 04:09:33;;;;;;;5.40;1.60;;;6.20;74.00;;;;;;5018602;28;20091;-76
2023/03/12 04:11:59;;;;;;;7.82;1.52;;;6.20;74.40;;;;;;5035775;28;20025;-76
2023/03/12 04:14:25;;;;;;;7.93;1.77;;;6.20;74.80;;;;;;5002067;28;20030;-76
2023/03/12 04:16:50;;;;;;;8.23;1.63;;;6.20;75.00;;;;;;5002103;28;20037;-76
2023/03/12 04:19:16;;;;;;;5.78;1.50;;;6.10;75.10;;;;;;5001948;28;20034;-76
2023/03/12 04:21:41;;;;;;;6.03;1.85;;;6.10;75.60;;;;;;5001712;28;20029;-76
2023/03/12 04:24:13;;;;;;;7.70;1.50;;;6.10;75.70;;;;;;5035294;28;20037;-77
2023/03/12 04:26:39;;;;;;;7.38;1.85;;;6.10;75.90;;;;;;5035481;28;20032;-77
2023/03/12 04:29:04;;;;;;;7.47;1.70;;;6.00;76.20;;;;;;5017140;28;20029;-79
2023/03/12 04:31:30;;;;;;;7.13;1.60;;;6.00;76.70;;;;;;5017986;28;20060;-76
2023/03/12 04:33:56;;;;;;;6.90;1.58;;;6.10;76.70;;;;;;4984690;28;20033;-76
2023/03/12 04:36:22;;;;;;;4.20;1.48;;;6.10;76.70;;;;;;5000838;28;20034;-76
2023/03/12 04:38:47;;;;;;;6.05;1.70;;;6.10;77.00;;;;;;5000782;28;20120;-76
2023/03/12 04:41:15;;;;;;;5.65;1.60;;;6.00;77.70;;;;;;5035088;28;20167;-76
2023/03/12 04:43:41;;;;;;;6.60;1.80;;;6.00;77.80;;;;;;5034999;28;20025;-76
2023/03/12 04:46:08;;;;;;;5.68;1.75;;;6.00;78.00;;;;;;5034817;28;20032;-76
2023/03/12 04:48:35;;;;;;;9.35;1.65;;;6.00;78.10;;;;;;5016908;28;20030;-76
2023/03/12 04:51:02;;;;;;;6.93;1.48;;;6.00;78.60;;;;;;5034402;28;20037;-76
2023/03/12 04:53:28;;;;;;;4.03;1.02;;;6.00;78.70;;;;;;5034381;28;20059;-77
2023/03/12 04:55:54;;;;;;;7.70;1.92;;;6.00;78.80;;;;;;5016869;28;20529;-76
2023/03/12 04:58:20;;;;;;;3.58;1.30;;;6.10;79.90;;;;;;5000867;28;20083;-76
2023/03/12 05:00:47;;;;;;;4.82;1.55;;;6.00;80.40;;;;;;5016517;28;20433;-76
2023/03/12 05:03:12;;;;;;;7.78;1.90;;;6.00;80.70;;;;;;5034235;28;20068;-76
2023/03/12 05:05:38;;;;;;;3.58;1.23;;;6.00;81.00;;;;;;5016776;28;20103;-77
2023/03/12 05:08:04;;;;;;;5.97;1.40;;;6.00;81.00;;;;;;5034140;28;20022;-77
2023/03/12 05:10:30;;;;;;;4.63;1.75;;;6.00;82.20;;;;;;5034381;28;20102;-76
2023/03/12 05:12:55;;;;;;;6.28;1.73;;;6.00;82.30;;;;;;5016937;28;20029;-77
2023/03/12 05:15:21;;;;;;;5.40;1.42;;;5.90;82.80;;;;;;5015966;28;20516;-77
2023/03/12 05:17:47;;;;;;;5.40;1.40;;;5.90;83.80;;;;;;5015904;28;20037;-77
2023/03/12 05:20:13;;;;;;;8.93;1.80;;;5.80;84.30;;;;;;5033778;28;20034;-77
2023/03/12 05:22:39;;;;;;;5.65;1.73;;;5.80;84.70;;;;;;5033873;28;20434;-77
2023/03/12 05:25:05;;;;;;;10.00;3.08;;;5.80;85.10;;;;;;5016328;28;20029;-76
2023/03/12 05:27:31;;;;;;;5.75;1.75;;;5.90;85.30;;;;;;5000171;28;20029;-76
2023/03/12 05:29:57;;;;;;;12.20;2.88;;;5.90;85.50;;;;;;5034022;28;20091;-77
2023/03/12 05:32:22;;;;;;;7.65;1.90;;;5.90;85.90;;;;;;5016631;28;20037;-76
2023/03/12 05:34:48;;;;;;;7.55;2.03;;;5.80;86.50;;;;;;5016141;28;20088;-77
2023/03/12 05:37:15;;;;;;;5.85;1.58;;;5.80;86.80;;;;;;5034178;28;20033;-77
2023/03/12 05:39:45;;;;;;;6.07;2.38;;;5.80;87.40;;;;;;5033797;28;20136;-77
2023/03/12 05:42:12;;;;;;;6.88;2.03;;;5.80;87.70;;;;;;5016886;28;20025;-78
2023/03/12 05:44:38;;;;;;;7.53;2.15;;;5.80;88.00;;;;;;5033727;28;20446;-77
2023/03/12 05:47:04;;;;;;;9.68;2.55;;;5.90;88.20;;;;;;5000162;28;20053;-77
2023/03/12 05:49:30;;;;;;;10.50;2.22;;;5.80;88.30;;;;;;5015973;28;20501;-77
2023/03/12 05:51:56;;;;;;;9.20;2.05;;;5.80;88.80;;;;;;5015782;28;20030;-77
2023/03/12 05:54:23;;;;;;;9.95;1.92;;;5.70;89.00;;;;;;5033604;28;20086;-77
2023/03/12 05:56:48;;;;;;;5.90;1.85;;;5.70;89.40;;;;;;4999362;28;20232;-78
2023/03/12 05:59:14;;;;;;;6.35;1.85;;;5.70;89.50;;;;;;5033456;28;20112;-77
2023/03/12 06:01:40;;;;;;;6.70;1.88;;;5.80;89.60;;;;;;5016191;28;20025;-77
2023/03/12 06:04:06;;;;;;;6.25;2.10;;;5.80;89.60;;;;;;4979847;28;20054;-77
2023/03/12 06:06:33;;;;;;;6.63;2.03;;;5.80;89.90;;;;;;5013090;28;20387;-77
2023/03/12 06:08:59;;;;;;;6.05;1.90;;;5.80;90.00;;;;;;5014023;28;20037;-77
2023/03/12 06:11:25;;;;;;;5.30;1.88;;;5.80;90.00;;;;;;5012368;28;20045;-78
2023/03/12 06:13:51;;;;;;;8.13;1.80;;;5.80;90.00;;;;;;5012351;28;20470;-78
2023/03/12 06:16:19;;;;;;;6.72;1.73;;;5.80;90.00;;;;;;5013548;28;20029;-77
2023/03/12 06:18:46;;;;;;;5.57;1.65;;;5.70;90.20;;;;;;5012142;28;20026;-77
2023/03/12 06:21:23;;;;;;;8.23;1.45;;;5.60;90.30;;;;;;5013519;28;20117;-77
2023/03/12 06:23:49;;;;;;;7.90;2.25;;;5.60;90.60;;;;;;5013854;28;20034;-78
2023/03/12 06:26:16;;;;;;;4.10;1.80;;;5.60;90.90;;;;;;5013462;28;20026;-77
2023/03/12 06:28:42;;;;;;;4.05;1.73;;;5.60;91.50;;;;;;5011908;28;20490;-80
2023/03/12 06:31:08;;;;;;;9.85;2.10;;;5.60;91.40;;;;;;5011942;28;20490;-79
2023/03/12 06:33:34;;;;;;;9.40;1.83;;;5.70;91.70;;;;;;4996302;28;20033;-80
2023/03/12 06:36:01;;;;;;;7.28;2.03;;;5.70;92.10;;;;;;4995895;28;20328;-79
2023/03/12 06:38:27;;;;;;;9.02;2.33;;;5.60;92.80;;;;;;4995526;28;20092;-79
2023/03/12 06:40:57;;;;;;;8.40;2.58;;;5.50;93.40;;;;;;4995496;28;20034;-79
2023/03/12 06:43:24;;;;;;;4.63;1.90;;;5.50;94.30;;;;;;5012535;28;20050;-79
2023/03/12 06:45:50;;;;;;;6.45;2.53;;;5.40;95.10;;;;;;5011668;28;20431;-79
2023/03/12 06:48:15;;;;;;;8.23;2.10;;;5.40;95.40;;;;;;5011898;28;20057;-79
2023/03/12 06:50:41;;;;;;;7.20;2.55;;;5.40;95.80;;;;;;4995305;28;20037;-79
2023/03/12 06:53:07;;;;;;;8.10;2.80;;;5.40;96.20;;;;;;5012394;28;20447;-79
2023/03/12 06:55:32;;;;;;;7.43;2.20;;;5.40;96.50;;;;;;4995927;28;20113;-79
2023/03/12 06:57:58;;;;;;;5.28;2.70;;;5.40;96.90;;;;;;4995812;28;20128;-77
2023/03/12 07:00:24;;;;;;;6.68;2.53;;;5.50;96.90;;;;;;5011562;28;20073;-80
2023/03/12 07:02:49;;;;;;;6.55;2.17;;;5.40;97.30;;;;;;5014970;28;20053;-79
2023/03/12 07:05:15;;;;;;;7.85;2.15;;;5.40;97.80;;;;;;4999085;28;20030;-77
2023/03/12 07:07:41;;;;;;;13.15;2.50;;;5.40;98.00;;;;;;5015953;28;20030;-80
2023/03/12 07:10:08;;;;;;;7.55;2.03;;;5.50;98.40;;;;;;5014701;28;20179;-80
2023/03/12 07:12:34;;;;;;;6.97;2.47;;;5.40;98.70;;;;;;5014790;28;20037;-80
2023/03/12 07:15:00;;;;;;;6.97;2.15;;;5.50;99.10;;;;;;4982430;28;20030;-80
2023/03/12 07:17:26;;;;;;;7.43;2.25;;;5.50;99.30;;;;;;5014942;28;20034;-80
2023/03/12 07:19:51;;;;;;;9.65;3.03;;;5.60;99.60;;;;;;5014739;28;20030;-80
2023/03/12 07:22:18;;;;;;;6.70;2.80;;;5.60;99.80;;;;;;5014857;28;20042;-80
2023/03/12 07:24:43;;;;;;;7.25;2.40;;;5.60;99.90;;;;;;5032844;28;20033;-80
2023/03/12 07:27:09;;;;;;;10.00;2.63;;;5.70;99.90;;;;;;5014756;28;20025;-80
2023/03/12 07:29:35;;;;;;;8.02;2.92;;;5.70;99.90;;;;;;4998038;28;20096;-80
2023/03/12 07:32:00;;;;;;;10.73;2.90;;;5.70;99.90;;;;;;5014640;28;20033;-81
2023/03/12 07:34:26;;;;;;;12.57;2.70;;;5.70;99.90;;;;;;4998714;28;20101;-82
2023/03/12 07:36:52;;;;;;;6.72;2.28;;;5.70;99.90;;;;;;4999124;28;20457;-78
2023/03/12 07:39:18;;;;;;;11.60;2.90;;;5.70;99.90;;;;;;4999043;28;20041;-76
2023/03/12 07:41:44;;;;;;;8.07;2.58;;;5.80;99.90;;;;;;5036013;28;20018;-76
2023/03/12 07:44:09;;;;;;;8.45;2.45;;;5.80;99.90;;;;;;5035642;28;20088;-76
2023/03/12 07:46:35;;;;;;;10.82;2.58;;;5.80;99.90;;;;;;5036396;28;20029;-76
2023/03/12 07:49:01;;;;;;;5.93;2.70;;;5.80;99.90;;;;;;5001796;28;20057;-76
2023/03/12 07:51:27;;;;;;;9.40;2.67;;;5.80;99.90;;;;;;5017800;28;20022;-76
2023/03/12 07:53:53;;;;;;;12.80;3.65;;;5.80;99.90;;;;;;5002019;28;20120;-76
2023/03/12 07:56:18;;;;;;;9.23;2.83;;;5.80;99.90;;;;;;5002246;28;20127;-76
2023/03/12 07:58:44;;;;;;;10.50;2.97;;;5.80;99.90;;;;;;5036481;28;20026;-76
2023/03/12 08:01:10;;;;;;;11.27;2.67;;;5.90;99.90;;;;;;5035960;28;20025;-77
2023/03/12 08:03:35;;;;;;;14.13;3.00;;;5.80;99.90;;;;;;5036145;28;20050;-76
2023/03/12 08:06:02;;;;;;;11.23;3.30;;;5.90;99.90;;;;;;5001528;28;20432;-75
2023/03/12 08:08:30;;;;;;;10.02;3.17;;;5.80;99.90;;;;;;5035198;28;20030;-76
2023/03/12 08:10:56;;;;;;;10.02;2.88;;;5.80;99.90;;;;;;5035415;28;20124;-76
2023/03/12 08:13:23;;;;;;;8.10;3.13;;;5.90;99.90;;;;;;5017462;28;20130;-76
2023/03/12 08:15:50;;;;;;;8.02;3.38;;;5.80;99.90;;;;;;5001390;28;20121;-76
2023/03/12 08:18:17;;;;;;;8.85;3.78;;;5.90;99.90;;;;;;5017323;28;20087;-76
2023/03/12 08:20:42;;;;;;;9.00;3.70;;;5.80;99.90;;;;;;5017398;28;20057;-76
2023/03/12 08:23:08;;;;;;;11.35;3.83;;;5.80;99.90;;;;;;5035016;28;20071;-76
2023/03/12 08:25:35;;;;;;;6.63;3.20;;;5.70;99.90;;;;;;5017578;28;20065;-77
2023/03/12 08:28:02;;;;;;;9.93;3.95;;;5.70;99.90;;;;;;4985100;28;20227;-78
2023/03/12 08:30:28;;;;;;;8.20;4.05;;;5.70;99.90;;;;;;5017048;28;20025;-74
2023/03/12 08:32:54;;;;;;;7.00;3.50;;;5.70;99.90;;;;;;5016999;28;20498;-76
2023/03/12 08:35:20;;;;;;;10.57;4.20;;;5.80;99.90;;;;;;5017421;28;20053;-75
2023/03/12 08:37:45;;;;;;;7.05;4.00;;;5.90;99.90;;;;;;5000685;28;20386;-74
2023/03/12 08:40:12;;;;;;;9.82;4.60;;;5.90;99.90;;;;;;5000646;28;20052;-77
2023/03/12 08:42:39;;;;;;;10.18;4.53;;;6.00;99.90;;;;;;5000634;28;20030;-74
2023/03/12 08:45:05;;;;;;;7.88;3.83;;;5.90;99.90;;;;;;5034685;28;20104;-74
2023/03/12 08:47:31;;;;;;;10.50;4.35;;;5.90;99.90;;;;;;5000625;28;20037;-75
2023/03/12 08:49:57;;;;;;;9.77;4.63;;;5.90;99.90;;;;;;5034221;28;20425;-74
2023/03/12 08:52:23;;;;;;;8.05;4.13;;;6.00;99.90;;;;;;5000529;28;20029;-73
2023/03/12 08:54:48;;;;;;;8.55;4.80;;;5.90;99.90;;;;;;5016893;28;20037;-74
2023/03/12 08:57:15;;;;;;;11.55;4.72;;;6.00;99.90;;;;;;5034319;28;20047;-74
2023/03/12 08:59:40;;;;;;;8.98;4.38;;;6.00;99.90;;;;;;5000030;28;20116;-75
2023/03/12 09:02:06;;;;;;;8.02;4.32;;;6.10;99.90;;;;;;5000610;28;20124;-74
2023/03/12 09:04:32;;;;;;;7.47;4.13;;;6.10;99.90;;;;;;5012885;28;20440;-74
2023/03/12 09:07:00;;;;;;;10.05;4.63;;;6.10;99.90;;;;;;5014521;28;20116;-74
2023/03/12 09:09:25;;;;;;;5.65;4.40;;;6.10;99.90;;;;;;5013197;28;20056;-75
2023/03/12 09:11:51;;;;;;;10.45;4.63;;;6.10;99.90;;;;;;5012659;28;20399;-74
2023/03/12 09:14:17;;;;;;;10.70;4.78;;;6.20;99.90;;;;;;5013890;28;20037;-74
2023/03/12 09:16:42;;;;;;;9.13;5.28;;;6.20;99.90;;;;;;5013421;28;20026;-74
2023/03/12 09:19:08;;;;;;;9.30;5.00;;;6.20;99.90;;;;;;5014329;28;20049;-74
2023/03/12 09:21:34;;;;;;;9.20;4.80;;;6.20;99.90;;;;;;4996336;28;20030;-78
2023/03/12 09:23:59;;;;;;;9.50;5.82;;;6.20;99.90;;;;;;4996312;28;20066;-79
2023/03/12 09:26:25;;;;;;;9.90;5.85;;;6.20;99.90;;;;;;4996836;28;20034;-80
2023/03/12 09:28:51;;;;;;;11.18;6.65;;;6.20;99.90;;;;;;4996475;28;20030;-80
2023/03/12 09:31:16;;;;;;;9.98;5.70;;;6.20;99.90;;;;;;5012688;28;20026;-74
2023/03/12 09:33:42;;;;;;;8.20;5.70;;;6.20;99.90;;;;;;5012611;28;20034;-74
2023/03/12 09:36:08;;;;;;;8.10;6.13;;;6.30;99.90;;;;;;5013969;28;20029;-74
2023/03/12 09:38:34;;;;;;;8.50;5.63;;;6.40;99.90;;;;;;5014229;28;20113;-74
2023/03/12 09:41:02;;;;;;;10.93;6.32;;;6.30;99.90;;;;;;5012484;28;20497;-74
2023/03/12 09:43:36;;;;;;;9.45;6.35;;;6.40;99.90;;;;;;5012656;28;20113;-74
2023/03/12 09:46:08;;;;;;;9.60;5.88;;;6.40;99.90;;;;;;5013019;28;20029;-73
2023/03/12 09:48:36;;;;;;;8.00;6.03;;;6.50;99.90;;;;;;5012851;28;20068;-76
2023/03/12 09:51:17;;;;;;;10.52;6.78;;;6.60;99.90;;;;;;5012378;28;20026;-80
2023/03/12 09:53:56;;;;;;;8.70;6.32;;;6.70;99.90;;;;;;5013568;28;20032;-79
2023/03/12 09:56:22;;;;;;;9.77;6.53;;;6.70;99.90;;;;;;5014530;28;20052;-80
2023/03/12 09:58:50;;;;;;;11.05;7.22;;;6.80;99.90;;;;;;5013103;28;20025;-76
2023/03/12 10:01:37;;;;;;;13.85;7.32;;;6.80;99.90;;;;;;5013745;28;20033;-77
2023/03/12 10:04:22;;;;;;;11.18;7.43;;;6.90;99.90;;;;;;5011880;28;20451;-77
2023/03/12 10:07:00;;;;;;;10.85;8.00;;;6.90;99.90;;;;;;5013714;28;20034;-76
2023/03/12 10:10:00;;;;;;;13.15;7.72;;;7.00;99.90;;;;;;5012107;28;20026;-76
2023/03/12 10:12:44;;;;;;;14.25;9.55;;;7.00;99.90;;;;;;5012569;28;20030;-76
2023/03/12 10:15:34;;;;;;;12.60;9.15;;;7.00;99.90;;;;;;5013302;28;20028;-76
2023/03/12 10:18:13;;;;;;;12.95;10.05;;;7.00;99.90;;;;;;5012489;28;20485;-76
2023/03/12 10:21:27;;;;;;;15.25;10.32;;;7.00;99.90;;;;;;5012259;28;20390;-76
2023/03/12 10:24:11;;;;;;;17.58;11.82;;;7.00;99.90;;;;;;4999717;28;20038;-76
2023/03/12 10:26:41;;;;;;;17.48;11.75;;;7.10;99.90;;;;;;5012175;28;20034;-77
2023/03/12 10:29:30;;;;;;;16.85;11.30;;;7.00;99.90;;;;;;5013258;28;20080;-77
2023/03/12 10:32:10;;;;;;;22.08;13.07;;;7.10;99.90;;;;;;5014041;28;20026;-76
2023/03/12 10:35:02;;;;;;;20.55;13.70;;;7.10;99.90;;;;;;5013490;28;20099;-76
2023/03/12 10:37:34;;;;;;;21.17;14.57;;;7.10;99.90;;;;;;5012885;28;20038;-76
2023/03/12 10:40:01;;;;;;;23.70;15.50;;;7.20;99.90;;;;;;5013336;28;20112;-77
2023/03/12 10:42:28;;;;;;;24.65;15.68;;;7.20;99.90;;;;;;5011748;28;20038;-76
2023/03/12 10:45:32;;;;;;;25.77;16.60;;;7.20;99.90;;;;;;4995547;28;20462;-77
2023/03/12 10:48:16;;;;;;;22.85;15.93;;;7.30;99.90;;;;;;5013178;28;20127;-76
2023/03/12 10:50:42;;;;;;;24.27;15.55;;;7.40;99.90;;;;;;5011906;28;20089;-76
2023/03/12 10:53:27;;;;;;;26.38;18.15;;;7.50;99.90;;;;;;5012190;28;20026;-80
2023/03/12 10:56:14;;;;;;;27.33;16.85;;;7.50;99.90;;;;;;5012038;28;20064;-77
2023/03/12 10:58:45;;;;;;;29.20;18.25;;;7.60;99.90;;;;;;5012731;28;20054;-77
2023/03/12 11:01:26;;;;;;;25.25;17.42;;;7.60;99.90;;;;;;5012122;28;20034;-77
2023/03/12 11:04:16;;;;;;;30.35;19.10;;;7.70;99.90;;;;;;5022428;28;20450;-77
2023/03/12 11:07:01;;;;;;;30.02;19.23;;;7.80;99.90;;;;;;5032476;28;20025;-77
2023/03/12 11:09:26;;;;;;;28.80;18.13;;;7.80;99.90;;;;;;5032779;28;20031;-77
2023/03/12 11:11:52;;;;;;;28.20;19.42;;;7.90;99.90;;;;;;4998880;28;20061;-77
2023/03/12 11:14:26;;;;;;;31.23;20.63;;;8.00;99.90;;;;;;5015600;28;20381;-77
2023/03/12 11:16:53;;;;;;;29.05;20.00;;;8.00;99.90;;;;;;5036779;28;20075;-77
2023/03/12 11:19:30;;;;;;;26.85;18.92;;;8.10;99.90;;;;;;5036433;28;20149;-77
2023/03/12 11:22:02;;;;;;;29.75;19.85;;;8.10;99.90;;;;;;5018385;28;20116;-77
2023/03/12 11:24:29;;;;;;;28.33;19.48;;;8.10;99.90;;;;;;5019039;28;20076;-77
2023/03/12 11:27:24;;;;;;;37.38;20.92;;;8.20;99.90;;;;;;5018220;28;20493;-77
2023/03/12 11:29:50;;;;;;;29.27;19.25;;;8.30;99.90;;;;;;5018761;28;20033;-77
2023/03/12 11:32:24;;;;;;;32.20;21.00;;;8.30;99.90;;;;;;5036660;28;20124;-78
2023/03/12 11:34:51;;;;;;;34.30;21.65;;;8.40;99.90;;;;;;5018859;28;20441;-77
2023/03/12 11:37:39;;;;;;;32.53;19.52;;;8.40;99.90;;;;;;4985776;28;20067;-77
2023/03/12 11:40:10;;;;;;;31.73;19.88;;;8.50;99.90;;;;;;5036401;28;20037;-77
2023/03/12 11:42:57;;;;;;;35.03;18.58;;;8.50;99.90;;;;;;5018521;28;20026;-77
2023/03/12 11:45:23;;;;;;;33.22;17.77;;;8.60;99.90;;;;;;5036418;28;20026;-77
2023/03/12 11:48:23;;;;;;;30.45;16.77;;;8.70;99.90;;;;;;5021802;28;20120;-77
2023/03/12 11:50:54;;;;;;;30.60;16.55;;;8.80;99.90;;;;;;5024977;28;20041;-77
2023/03/12 11:53:31;;;;;;;35.38;16.92;;;8.80;99.90;;;;;;5038613;28;20026;-77
2023/03/12 11:56:07;;;;;;;32.33;15.55;;;8.80;99.90;;;;;;5019443;28;20025;-77
2023/03/12 11:58:47;;;;;;;36.22;15.15;;;8.90;99.90;;;;;;5018229;28;20052;-77
2023/03/12 12:01:31;;;;;;;34.50;13.95;;;8.90;99.90;;;;;;5018804;28;20072;-77
2023/03/12 12:04:17;;;;;;;34.92;13.00;;;9.00;99.90;;;;;;5035808;28;20124;-77
2023/03/12 12:06:42;;;;;;;32.28;12.55;;;9.10;99.90;;;;;;5017822;28;20029;-77
2023/03/12 12:09:23;;;;;;;32.65;11.75;;;9.10;99.90;;;;;;5036191;28;20021;-77
2023/03/12 12:12:09;;;;;;;32.85;10.82;;;9.20;99.90;;;;;;5035650;28;20025;-77
2023/03/12 12:14:46;;;;;;;35.60;10.82;;;9.20;99.90;;;;;;5017824;28;20476;-77
2023/03/12 12:17:36;;;;;;;26.65;9.00;;;9.30;99.90;;;;;;5018053;28;20382;-77
2023/03/12 12:20:16;;;;;;;30.70;8.52;;;9.30;99.90;;;;;;5018299;28;20034;-77
2023/03/12 12:23:02;;;;;;;33.70;8.80;;;9.40;99.90;;;;;;5035607;28;20032;-76
2023/03/12 12:25:50;;;;;;;36.10;8.98;;;9.40;99.90;;;;;;5017331;28;20029;-76
2023/03/12 12:28:40;;;;;;;31.80;8.02;;;9.40;99.90;;;;;;5034952;28;20035;-77
2023/03/12 12:31:20;;;;;;;33.05;6.43;;;9.50;99.90;;;;;;5017606;28;20230;-77
2023/03/12 12:34:16;;;;;;;33.03;7.32;;;9.50;99.90;;;;;;5035096;28;20034;-77
2023/03/12 12:36:49;;;;;;;35.85;6.38;;;9.50;99.90;;;;;;4989434;28;20041;-77
2023/03/12 12:39:37;;;;;;;36.90;6.53;;;9.50;99.90;;;;;;5017970;28;20073;-77
2023/03/12 12:42:09;;;;;;;39.85;8.02;;;9.60;99.90;;;;;;5017696;28;20110;-76
2023/03/12 12:44:45;;;;;;;35.08;6.90;;;9.60;99.90;;;;;;5034963;28;20083;-76
2023/03/12 12:47:17;;;;;;;32.92;6.95;;;9.60;99.90;;;;;;5016842;28;20025;-77
2023/03/12 12:49:48;;;;;;;41.97;7.07;;;9.60;99.90;;;;;;5034738;28;20025;-77
2023/03/12 12:52:19;;;;;;;45.70;7.60;;;9.60;99.90;;;;;;5035137;28;20021;-76
2023/03/12 12:55:12;;;;;;;39.22;7.57;;;9.60;99.90;;;;;;5034361;28;20025;-77
2023/03/12 12:57:41;;;;;;;34.80;6.13;;;9.60;99.90;;;;;;5017262;28;20427;-77
2023/03/12 13:00:22;;;;;;;38.75;5.97;;;9.70;99.90;;;;;;5034118;28;20038;-77
2023/03/12 13:02:49;;;;;;;31.23;6.35;;;9.70;99.90;;;;;;5034849;28;20036;-77
2023/03/12 13:05:38;;;;;;;30.65;5.55;;;9.70;99.90;;;;;;5000882;28;20037;-77